createdAt,value
2023-05-24T00:00:11.211Z,2.20
2023-05-24T00:02:43.751Z,1.73
2023-05-24T00:05:16.775Z,2.13
2023-05-24T00:07:49.424Z,1.85
2023-05-24T00:10:22.206Z,2.00
2023-05-24T00:12:54.801Z,1.85
2023-05-24T00:15:27.233Z,2.35
2023-05-24T00:17:59.712Z,1.90
2023-05-24T00:20:32.575Z,1.65
2023-05-24T00:23:05.070Z,1.33
2023-05-24T00:25:37.641Z,1.95
2023-05-24T00:28:10.367Z,1.88
2023-05-24T00:30:43.264Z,1.90
2023-05-24T00:33:15.987Z,1.70
2023-05-24T00:35:48.678Z,1.48
2023-05-24T00:38:21.231Z,1.50
2023-05-24T00:40:56.445Z,1.67
2023-05-24T00:43:28.934Z,1.67
2023-05-24T00:46:26.437Z,1.67
2023-05-24T00:49:00.398Z,2.45
2023-05-24T00:51:33.959Z,1.92
2023-05-24T00:54:06.959Z,2.15
2023-05-24T00:56:39.638Z,1.73
2023-05-24T00:59:12.320Z,2.67
2023-05-24T01:01:46.990Z,1.67
2023-05-24T01:04:20.472Z,1.58
2023-05-24T01:07:09.275Z,1.60
2023-05-24T01:10:03.065Z,1.52
2023-05-24T01:12:58.668Z,1.92
2023-05-24T01:15:50.088Z,1.67
2023-05-24T01:18:33.748Z,1.73
2023-05-24T01:21:26.531Z,1.50
2023-05-24T01:24:25.889Z,1.85
2023-05-24T01:27:08.004Z,2.00
2023-05-24T01:29:40.684Z,2.40
2023-05-24T01:32:13.478Z,2.33
2023-05-24T01:34:45.959Z,2.03
2023-05-24T01:37:18.596Z,2.17
2023-05-24T01:39:51.416Z,2.17
2023-05-24T01:42:54.706Z,1.88
2023-05-24T01:45:44.454Z,1.98
2023-05-24T01:48:27.680Z,2.25
2023-05-24T01:51:01.696Z,2.15
2023-05-24T01:53:39.459Z,1.77
2023-05-24T01:56:13.163Z,2.03
2023-05-24T01:58:47.544Z,2.90
2023-05-24T02:01:20.113Z,1.90
2023-05-24T02:03:52.786Z,2.10
2023-05-24T02:06:25.475Z,2.05
2023-05-24T02:08:57.904Z,2.20
2023-05-24T02:11:30.452Z,1.98
2023-05-24T02:14:03.008Z,1.70
2023-05-24T02:16:42.576Z,1.90
2023-05-24T02:19:15.542Z,1.65
2023-05-24T02:21:48.126Z,2.30
2023-05-24T02:24:20.673Z,2.28
2023-05-24T02:26:54.893Z,2.22
2023-05-24T02:29:27.486Z,2.35
2023-05-24T02:31:59.927Z,2.45
2023-05-24T02:34:32.342Z,1.83
2023-05-24T02:37:05.380Z,1.92
2023-05-24T02:39:37.835Z,2.20
2023-05-24T02:42:11.475Z,1.77
2023-05-24T02:44:47.862Z,2.25
2023-05-24T02:47:20.442Z,2.35
2023-05-24T02:49:53.872Z,2.70
2023-05-24T02:52:26.768Z,2.53
2023-05-24T02:54:59.220Z,1.90
2023-05-24T02:57:34.119Z,2.08
2023-05-24T03:00:09.579Z,1.65
2023-05-24T03:02:42.330Z,2.10
2023-05-24T03:05:15.008Z,2.03
2023-05-24T03:07:47.539Z,2.00
2023-05-24T03:10:20.021Z,1.90
2023-05-24T03:12:52.488Z,2.13
2023-05-24T03:15:25.032Z,2.42
2023-05-24T03:17:57.516Z,2.08
2023-05-24T03:20:30.046Z,2.22
2023-05-24T03:23:02.629Z,2.28
2023-05-24T03:25:35.287Z,1.70
2023-05-24T03:28:07.773Z,2.42
2023-05-24T03:30:40.443Z,2.78
2023-05-24T03:33:13.165Z,2.05
2023-05-24T03:35:45.743Z,3.20
2023-05-24T03:38:18.269Z,1.67
2023-05-24T03:40:50.737Z,1.92
2023-05-24T03:43:23.377Z,2.30
2023-05-24T03:45:55.873Z,2.13
2023-05-24T03:48:28.421Z,2.97
2023-05-24T03:51:00.849Z,2.58
2023-05-24T03:53:33.339Z,2.22
2023-05-24T03:56:06.046Z,2.13
2023-05-24T03:58:38.647Z,2.95
2023-05-24T04:01:21.952Z,1.95
2023-05-24T04:04:03.178Z,2.47
2023-05-24T04:06:36.856Z,3.13
2023-05-24T04:09:10.044Z,2.60
2023-05-24T04:11:42.597Z,2.35
2023-05-24T04:14:15.156Z,2.60
2023-05-24T04:16:48.288Z,2.88
2023-05-24T04:19:21.225Z,2.90
2023-05-24T04:21:53.715Z,3.10
2023-05-24T04:24:26.236Z,2.63
2023-05-24T04:27:00.241Z,2.92
2023-05-24T04:29:33.895Z,2.92
2023-05-24T04:32:06.899Z,2.88
2023-05-24T04:34:42.827Z,2.63
2023-05-24T04:37:17.105Z,2.38
2023-05-24T04:39:49.595Z,2.47
2023-05-24T04:42:22.147Z,2.83
2023-05-24T04:44:54.545Z,2.40
2023-05-24T04:47:27.461Z,2.50
2023-05-24T04:49:59.938Z,2.95
2023-05-24T04:52:33.363Z,2.72
2023-05-24T04:55:06.309Z,2.95
2023-05-24T04:57:38.854Z,3.17
2023-05-24T05:00:12.007Z,3.10
2023-05-24T05:02:44.678Z,2.67
2023-05-24T05:05:17.371Z,2.70
2023-05-24T05:07:49.926Z,3.17
2023-05-24T05:10:23.904Z,3.17
2023-05-24T05:12:56.519Z,2.50
2023-05-24T05:15:29.395Z,2.75
2023-05-24T05:18:01.938Z,3.17
2023-05-24T05:20:34.652Z,3.13
2023-05-24T05:23:07.220Z,3.00
2023-05-24T05:25:39.691Z,2.97
2023-05-24T05:28:12.183Z,3.15
2023-05-24T05:30:44.727Z,3.03
2023-05-24T05:33:17.461Z,3.47
2023-05-24T05:35:50.907Z,3.80
2023-05-24T05:38:24.789Z,3.28
2023-05-24T05:40:57.301Z,2.60
2023-05-24T05:43:31.051Z,3.22
2023-05-24T05:46:03.667Z,3.13
2023-05-24T05:48:36.279Z,3.72
2023-05-24T05:51:09.214Z,3.17
2023-05-24T05:53:41.710Z,3.83
2023-05-24T05:56:14.155Z,3.78
2023-05-24T05:58:46.828Z,3.47
2023-05-24T06:01:19.245Z,3.30
2023-05-24T06:03:52.144Z,3.35
2023-05-24T06:06:24.593Z,2.90
2023-05-24T06:08:57.107Z,3.15
2023-05-24T06:11:29.608Z,3.92
2023-05-24T06:14:02.706Z,3.42
2023-05-24T06:16:36.558Z,3.40
2023-05-24T06:19:09.258Z,3.55
2023-05-24T06:21:47.253Z,4.15
2023-05-24T06:24:22.723Z,4.15
2023-05-24T06:26:55.846Z,3.97
2023-05-24T06:29:28.358Z,4.28
2023-05-24T06:32:01.007Z,3.53
2023-05-24T06:34:33.676Z,4.05
2023-05-24T06:37:06.145Z,3.08
2023-05-24T06:39:38.628Z,4.68
2023-05-24T06:42:11.156Z,4.68
2023-05-24T06:44:43.608Z,3.85
2023-05-24T06:47:16.186Z,3.75
2023-05-24T06:49:50.048Z,4.10
2023-05-24T06:52:22.884Z,4.45
2023-05-24T06:54:55.554Z,4.78
2023-05-24T06:57:28.065Z,3.95
2023-05-24T07:00:00.562Z,3.85
2023-05-24T07:02:33.101Z,5.18
2023-05-24T07:05:06.462Z,4.13
2023-05-24T07:07:40.341Z,5.00
2023-05-24T07:10:13.380Z,4.88
2023-05-24T07:12:46.064Z,4.78
2023-05-24T07:15:18.674Z,4.70
2023-05-24T07:17:51.118Z,4.55
2023-05-24T07:20:23.684Z,4.20
2023-05-24T07:22:56.987Z,4.82
2023-05-24T07:25:29.420Z,4.47
2023-05-24T07:28:01.853Z,3.88
2023-05-24T07:30:34.961Z,4.30
2023-05-24T07:33:07.583Z,4.05
2023-05-24T07:35:40.228Z,3.10
2023-05-24T07:38:12.739Z,4.30
2023-05-24T07:40:45.413Z,4.60
2023-05-24T07:43:18.070Z,3.35
2023-05-24T07:45:50.566Z,3.55
2023-05-24T07:48:25.995Z,3.30
2023-05-24T07:50:58.499Z,4.80
2023-05-24T07:53:31.434Z,4.35
2023-05-24T07:56:04.131Z,3.35
2023-05-24T07:58:38.448Z,2.72
2023-05-24T08:01:10.894Z,3.38
2023-05-24T08:03:43.621Z,2.60
2023-05-24T08:06:16.658Z,3.38
2023-05-24T08:08:49.155Z,3.15
2023-05-24T08:11:21.784Z,2.40
2023-05-24T08:13:54.242Z,2.25
2023-05-24T08:16:26.840Z,3.05
2023-05-24T08:18:59.378Z,3.53
2023-05-24T08:21:32.043Z,2.85
2023-05-24T08:24:06.157Z,2.60
2023-05-24T08:26:41.220Z,3.17
2023-05-24T08:29:13.697Z,2.72
2023-05-24T08:31:46.350Z,2.20
2023-05-24T08:34:19.235Z,1.98
2023-05-24T08:36:51.691Z,2.33
2023-05-24T08:39:24.206Z,2.10
2023-05-24T08:42:08.628Z,2.58
2023-05-24T08:44:52.676Z,2.75
2023-05-24T08:47:26.360Z,2.58
2023-05-24T08:49:59.590Z,2.58
2023-05-24T08:52:32.759Z,2.30
2023-05-24T08:55:05.887Z,2.28
2023-05-24T08:57:41.024Z,2.30
2023-05-24T09:00:14.171Z,2.20
2023-05-24T09:02:47.567Z,2.30
2023-05-24T09:05:22.064Z,2.72
2023-05-24T09:07:56.880Z,2.08
2023-05-24T09:10:41.208Z,2.60
2023-05-24T09:13:24.062Z,2.03
2023-05-24T09:15:56.847Z,2.65
2023-05-24T09:18:29.507Z,2.10
2023-05-24T09:21:02.066Z,2.53
2023-05-24T09:23:35.221Z,3.55
2023-05-24T09:26:09.742Z,2.03
2023-05-24T09:28:42.293Z,2.60
2023-05-24T09:31:14.835Z,2.20
2023-05-24T09:33:48.725Z,2.65
2023-05-24T09:36:21.927Z,2.17
2023-05-24T09:39:09.519Z,2.30
2023-05-24T09:41:44.042Z,2.00
2023-05-24T09:44:16.798Z,2.70
2023-05-24T09:46:49.428Z,2.00
2023-05-24T09:49:21.965Z,2.55
2023-05-24T09:51:54.601Z,2.10
2023-05-24T09:54:27.637Z,1.90
2023-05-24T09:57:03.488Z,1.80
2023-05-24T09:59:40.099Z,1.70
2023-05-24T10:02:12.839Z,1.80
2023-05-24T10:04:45.387Z,2.08
2023-05-24T10:07:18.445Z,1.95
2023-05-24T10:09:51.681Z,1.90
2023-05-24T10:12:25.682Z,2.85
2023-05-24T10:14:59.870Z,1.77
2023-05-24T10:17:32.495Z,2.30
2023-05-24T10:20:07.301Z,1.92
2023-05-24T10:22:47.608Z,2.42
2023-05-24T10:25:27.440Z,2.05
2023-05-24T10:28:07.322Z,2.05
2023-05-24T10:31:02.054Z,2.33
2023-05-24T10:36:11.828Z,2.13
2023-05-24T10:38:47.093Z,1.98
2023-05-24T10:41:19.896Z,1.90
2023-05-24T10:44:07.846Z,1.90
2023-05-24T10:47:13.477Z,1.63
2023-05-24T10:49:57.719Z,1.75
2023-05-24T10:52:36.974Z,2.47
2023-05-24T10:55:11.706Z,1.77
2023-05-24T10:57:44.243Z,1.92
2023-05-24T11:03:08.911Z,2.38
2023-05-24T11:05:50.799Z,2.25
2023-05-24T11:08:25.751Z,1.73
2023-05-24T11:11:22.176Z,2.05
2023-05-24T11:14:00.536Z,2.13
2023-05-24T11:16:40.694Z,2.10
2023-05-24T11:19:22.406Z,1.92
2023-05-24T11:22:00.603Z,2.15
2023-05-24T11:24:33.971Z,2.13
2023-05-24T11:27:07.579Z,2.00
2023-05-24T11:29:45.028Z,2.15
2023-05-24T11:32:20.067Z,2.08
2023-05-24T11:34:52.859Z,1.88
2023-05-24T11:37:38.593Z,1.60
2023-05-24T11:40:18.503Z,1.98
2023-05-24T11:42:51.109Z,1.65
2023-05-24T11:45:23.677Z,2.20
2023-05-24T11:47:56.281Z,1.80
2023-05-24T11:50:28.957Z,1.63
2023-05-24T11:53:05.236Z,2.10
2023-05-24T11:55:40.233Z,1.92
2023-05-24T11:58:49.010Z,2.13
2023-05-24T12:01:25.728Z,1.73
2023-05-24T12:03:58.285Z,2.33
2023-05-24T12:06:38.804Z,1.98
2023-05-24T12:09:15.919Z,1.90
2023-05-24T12:11:50.531Z,2.65
2023-05-24T12:14:30.304Z,1.88
2023-05-24T12:17:03.508Z,1.98
2023-05-24T12:19:36.643Z,1.92
2023-05-24T12:22:10.687Z,2.00
2023-05-24T12:24:43.804Z,2.58
2023-05-24T12:27:16.320Z,1.83
2023-05-24T12:29:49.189Z,1.77
2023-05-24T12:32:21.970Z,2.03
2023-05-24T12:34:54.809Z,1.88
2023-05-24T12:37:30.830Z,2.17
2023-05-24T12:40:05.258Z,1.75
2023-05-24T12:42:37.799Z,1.85
2023-05-24T12:45:10.576Z,1.85
2023-05-24T12:47:43.158Z,2.83
2023-05-24T12:50:17.192Z,2.08
2023-05-24T12:52:53.207Z,1.90
2023-05-24T12:55:27.133Z,2.00
2023-05-24T12:58:02.484Z,2.05
2023-05-24T13:03:07.575Z,2.00
2023-05-24T13:05:40.675Z,2.30
2023-05-24T13:08:13.622Z,2.38
2023-05-24T13:10:46.281Z,1.83
2023-05-24T13:13:18.769Z,2.03
2023-05-24T13:15:52.296Z,1.98
2023-05-24T13:18:26.228Z,2.00
2023-05-24T13:21:00.761Z,2.28
2023-05-24T13:23:36.134Z,2.35
2023-05-24T13:28:58.701Z,3.42
2023-05-24T13:31:37.257Z,2.40
2023-05-24T13:34:13.136Z,2.10
2023-05-24T13:39:19.711Z,2.13
2023-05-24T13:41:52.717Z,3.13
2023-05-24T13:44:25.317Z,2.40
2023-05-24T13:46:58.713Z,2.13
2023-05-24T13:49:31.366Z,1.60
2023-05-24T13:52:03.962Z,1.50
2023-05-24T13:54:36.625Z,2.00
2023-05-24T13:57:09.115Z,2.50
2023-05-24T13:59:41.845Z,1.92
2023-05-24T14:02:14.442Z,2.10
2023-05-24T14:04:47.055Z,1.90
2023-05-24T14:07:19.970Z,2.03
2023-05-24T14:09:52.837Z,1.85
2023-05-24T14:12:25.355Z,1.90
2023-05-24T14:15:00.019Z,1.98
2023-05-24T14:17:32.999Z,2.25
2023-05-24T14:20:07.249Z,1.80
2023-05-24T14:22:39.944Z,1.73
2023-05-24T14:25:12.486Z,1.80
2023-05-24T14:27:45.594Z,2.00
2023-05-24T14:30:18.150Z,2.22
2023-05-24T14:32:50.824Z,1.58
2023-05-24T14:35:23.402Z,2.03
2023-05-24T14:37:56.108Z,1.75
2023-05-24T14:40:29.119Z,1.85
2023-05-24T14:43:01.965Z,1.70
2023-05-24T14:45:34.484Z,1.70
2023-05-24T14:48:10.729Z,1.70
2023-05-24T14:50:43.366Z,1.70
2023-05-24T14:53:16.041Z,1.38
2023-05-24T14:55:48.727Z,1.58
2023-05-24T14:58:21.327Z,2.03
2023-05-24T15:00:53.869Z,2.00
2023-05-24T15:03:26.524Z,1.80
2023-05-24T15:06:08.013Z,1.80
2023-05-24T15:08:40.612Z,1.70
2023-05-24T15:11:13.005Z,1.70
2023-05-24T15:13:46.145Z,1.83
2023-05-24T15:16:18.702Z,2.28
2023-05-24T15:18:52.018Z,2.10
2023-05-24T15:21:24.441Z,1.52
2023-05-24T15:23:56.906Z,2.20
2023-05-24T15:26:29.341Z,1.80
2023-05-24T15:29:03.936Z,2.08
2023-05-24T15:31:36.853Z,1.67
2023-05-24T15:34:09.612Z,2.10
2023-05-24T15:36:42.356Z,1.67
2023-05-24T15:39:15.211Z,1.83
2023-05-24T15:41:47.680Z,1.75
2023-05-24T15:44:21.473Z,2.05
2023-05-24T15:46:54.068Z,2.00
2023-05-24T15:49:26.621Z,2.38
2023-05-24T15:52:04.263Z,2.00
2023-05-24T15:54:37.270Z,1.70
2023-05-24T15:57:09.836Z,2.15
2023-05-24T15:59:42.470Z,2.40
2023-05-24T16:02:15.036Z,1.70
2023-05-24T16:04:47.578Z,2.33
2023-05-24T16:07:20.191Z,2.03
2023-05-24T16:09:52.725Z,1.98
2023-05-24T16:15:00.559Z,2.50
2023-05-24T16:17:33.085Z,2.00
2023-05-24T16:20:06.310Z,2.22
2023-05-24T16:22:47.528Z,2.42
2023-05-24T16:25:21.131Z,2.13
2023-05-24T16:27:56.176Z,1.98
2023-05-24T16:30:31.288Z,2.05
2023-05-24T16:33:03.934Z,2.40
2023-05-24T16:35:36.451Z,1.90
2023-05-24T16:38:08.943Z,2.00
2023-05-24T16:40:42.417Z,2.20
2023-05-24T16:43:16.750Z,2.70
2023-05-24T16:45:49.264Z,2.00
2023-05-24T16:48:28.184Z,2.03
2023-05-24T16:51:01.000Z,2.67
2023-05-24T16:53:33.642Z,2.35
2023-05-24T16:56:06.190Z,1.73
2023-05-24T16:58:38.612Z,1.83
2023-05-24T17:01:11.170Z,2.30
2023-05-24T17:03:43.826Z,2.25
2023-05-24T17:06:16.374Z,2.25
2023-05-24T17:08:48.827Z,1.60
2023-05-24T17:11:23.041Z,2.10
2023-05-24T17:13:55.782Z,1.92
2023-05-24T17:16:28.682Z,1.80
2023-05-24T17:19:01.391Z,2.17
2023-05-24T17:21:33.953Z,2.05
2023-05-24T17:24:06.525Z,2.05
2023-05-24T17:26:40.339Z,2.17
2023-05-24T17:29:13.132Z,2.00
2023-05-24T17:31:46.044Z,1.90
2023-05-24T17:34:18.655Z,2.15
2023-05-24T17:36:51.151Z,2.15
2023-05-24T17:39:23.907Z,2.22
2023-05-24T17:41:56.378Z,1.83
2023-05-24T17:44:28.983Z,2.63
2023-05-24T17:47:04.608Z,1.70
2023-05-24T17:52:09.558Z,1.63
2023-05-24T17:54:42.083Z,1.90
2023-05-24T17:57:14.501Z,1.98
2023-05-24T17:59:47.057Z,2.08
2023-05-24T18:02:19.532Z,2.17
2023-05-24T18:04:52.741Z,2.15
2023-05-24T18:07:25.302Z,1.70
2023-05-24T18:10:00.193Z,2.53
2023-05-24T18:12:33.171Z,2.25
2023-05-24T18:15:06.457Z,2.25
2023-05-24T18:17:38.906Z,1.80
2023-05-24T18:20:12.677Z,2.50
2023-05-24T18:22:45.238Z,2.08
2023-05-24T18:25:17.966Z,3.03
2023-05-24T18:27:50.534Z,2.28
2023-05-24T18:30:23.040Z,1.60
2023-05-24T18:35:35.756Z,2.53
2023-05-24T18:38:08.242Z,2.65
2023-05-24T18:40:40.830Z,2.35
2023-05-24T18:43:13.494Z,2.28
2023-05-24T18:45:46.048Z,2.00
2023-05-24T18:48:18.590Z,2.45
2023-05-24T18:50:52.057Z,2.13
2023-05-24T18:53:25.600Z,2.72
2023-05-24T18:55:58.228Z,1.98
2023-05-24T18:58:34.229Z,1.85
2023-05-24T19:01:06.867Z,1.60
2023-05-24T19:03:41.640Z,1.67
2023-05-24T19:06:14.643Z,2.35
2023-05-24T19:08:47.302Z,1.85
2023-05-24T19:11:23.068Z,2.00
2023-05-24T19:13:58.550Z,2.17
2023-05-24T19:16:31.169Z,1.50
2023-05-24T19:19:06.148Z,1.80
2023-05-24T19:21:38.735Z,2.50
2023-05-24T19:24:11.312Z,1.88
2023-05-24T19:26:43.953Z,2.38
2023-05-24T19:29:17.456Z,2.00
2023-05-24T19:31:52.945Z,1.88
2023-05-24T19:34:25.892Z,2.28
2023-05-24T19:36:58.652Z,1.88
2023-05-24T19:39:31.255Z,1.92
2023-05-24T19:42:04.563Z,1.92
2023-05-24T19:44:37.622Z,2.03
2023-05-24T19:47:10.185Z,2.25
2023-05-24T19:49:43.233Z,2.33
2023-05-24T19:52:18.512Z,2.17
2023-05-24T19:54:52.774Z,2.50
2023-05-24T19:57:25.451Z,2.22
2023-05-24T19:59:58.048Z,2.10
2023-05-24T20:02:30.490Z,1.80
2023-05-24T20:05:03.281Z,2.17
2023-05-24T20:07:35.751Z,2.70
2023-05-24T20:10:08.803Z,1.83
2023-05-24T20:12:42.638Z,2.47
2023-05-24T20:15:17.323Z,2.33
2023-05-24T20:17:49.827Z,2.17
2023-05-24T20:20:22.625Z,2.50
2023-05-24T20:22:55.223Z,2.45
2023-05-24T20:25:27.990Z,2.20
2023-05-24T20:28:00.630Z,1.95
2023-05-24T20:30:33.908Z,2.03
2023-05-24T20:33:06.488Z,2.50
2023-05-24T20:35:39.208Z,2.47
2023-05-24T20:38:11.887Z,2.22
2023-05-24T20:40:44.590Z,2.78
2023-05-24T20:43:17.109Z,2.13
2023-05-24T20:45:49.679Z,2.30
2023-05-24T20:48:23.332Z,2.25
2023-05-24T20:50:55.885Z,2.45
2023-05-24T20:53:28.445Z,2.60
2023-05-24T20:56:02.004Z,2.13
2023-05-24T20:58:34.516Z,2.13
2023-05-24T21:01:08.789Z,2.22
2023-05-24T21:03:41.471Z,1.85
2023-05-24T21:06:14.347Z,2.33
2023-05-24T21:08:47.187Z,2.20
2023-05-24T21:11:19.702Z,3.00
2023-05-24T21:13:52.225Z,2.60
2023-05-24T21:16:25.244Z,1.92
2023-05-24T21:19:00.386Z,2.80
2023-05-24T21:21:33.022Z,2.42
2023-05-24T21:24:05.648Z,2.72
2023-05-24T21:26:38.099Z,2.60
2023-05-24T21:29:13.097Z,2.80
2023-05-24T21:31:46.314Z,2.92
2023-05-24T21:34:19.144Z,2.63
2023-05-24T21:36:51.629Z,3.08
2023-05-24T21:39:24.158Z,3.15
2023-05-24T21:41:56.574Z,2.67
2023-05-24T21:44:29.017Z,2.72
2023-05-24T21:47:01.623Z,2.67
2023-05-24T21:49:34.046Z,2.53
2023-05-24T21:52:06.585Z,2.95
2023-05-24T21:54:39.024Z,3.20
2023-05-24T21:57:11.549Z,3.75
2023-05-24T21:59:44.039Z,3.65
2023-05-24T22:02:16.725Z,2.63
2023-05-24T22:04:49.430Z,3.03
2023-05-24T22:07:21.883Z,3.33
2023-05-24T22:09:54.376Z,2.60
2023-05-24T22:12:26.794Z,3.58
2023-05-24T22:15:00.891Z,2.90
2023-05-24T22:17:33.356Z,3.20
2023-05-24T22:20:06.651Z,3.20
2023-05-24T22:22:48.301Z,3.45
2023-05-24T22:25:21.039Z,3.33
2023-05-24T22:27:55.616Z,3.28
2023-05-24T22:30:28.102Z,3.17
2023-05-24T22:33:01.245Z,3.70
2023-05-24T22:35:33.730Z,3.60
2023-05-24T22:38:06.561Z,3.08
2023-05-24T22:40:41.971Z,3.33
2023-05-24T22:43:14.525Z,3.15
2023-05-24T22:45:47.199Z,3.33
2023-05-24T22:48:21.939Z,3.30
2023-05-24T22:50:57.168Z,3.10
2023-05-24T22:53:29.690Z,3.08
2023-05-24T22:56:02.283Z,3.83
2023-05-24T22:58:34.785Z,3.28
2023-05-24T23:01:07.372Z,3.05
2023-05-24T23:03:39.928Z,3.72
2023-05-24T23:06:12.387Z,3.28
2023-05-24T23:08:44.826Z,3.00
2023-05-24T23:11:18.064Z,2.75
2023-05-24T23:13:52.209Z,3.08
2023-05-24T23:16:24.636Z,3.63
2023-05-24T23:18:57.412Z,3.00
2023-05-24T23:21:29.943Z,3.28
2023-05-24T23:24:05.847Z,4.13
2023-05-24T23:26:38.351Z,3.58
2023-05-24T23:29:10.809Z,3.47
2023-05-24T23:31:43.411Z,4.45
2023-05-24T23:34:16.080Z,2.67
2023-05-24T23:36:48.594Z,3.80
2023-05-24T23:39:21.416Z,3.70
2023-05-24T23:41:54.072Z,3.30
2023-05-24T23:44:26.590Z,3.60
2023-05-24T23:46:59.158Z,3.33
2023-05-24T23:49:31.694Z,4.35
2023-05-24T23:52:04.494Z,4.10
2023-05-24T23:54:36.968Z,3.45
2023-05-24T23:57:09.650Z,3.10
2023-05-24T23:59:42.102Z,4.18
